Time;durP1;ratioP1;P1;durP2;ratioP2;P2;SDS_P1;SDS_P2;PMS_P1;PMS_P2;Temp;Humidity;BMP_temperature;BMP_pressure;BME280_temperature;BME280_humidity;BME280_pressure;Samples;Min_cycle;Max_cycle;Signal;HPM_P1;HPM_P2
2021/12/08 00:01:31;;;;;;;;;2.00;0.33;;;;;;;;4978527;28;45452;-70
2021/12/08 00:03:56;;;;;;;;;5.67;0.00;;;;;;;;4978700;28;45488;-70
2021/12/08 00:06:21;;;;;;;;;1.00;0.00;;;;;;;;4979473;28;45376;-70
2021/12/08 00:09:01;;;;;;;;;1.75;0.50;;;;;;;;4977376;28;46379;-70
2021/12/08 00:14:10;;;;;;;;;1.50;1.00;;;;;;;;4978893;28;45503;-71
2021/12/08 00:16:35;;;;;;;;;2.00;0.00;;;;;;;;4972083;28;45424;-70
2021/12/08 00:19:00;;;;;;;;;0.67;0.67;;;;;;;;4987914;28;46501;-70
2021/12/08 00:21:27;;;;;;;;;0.00;0.00;;;;;;;;4977653;28;47314;-70
2021/12/08 00:23:54;;;;;;;;;1.00;0.50;;;;;;;;4977756;28;45293;-70
2021/12/08 00:26:19;;;;;;;;;1.75;1.00;;;;;;;;4978389;28;45325;-70
2021/12/08 00:28:44;;;;;;;;;1.00;0.00;;;;;;;;4979927;28;45571;-70
2021/12/08 00:31:09;;;;;;;;;0.00;0.00;;;;;;;;4978189;28;45313;-70
2021/12/08 00:33:35;;;;;;;;;1.00;1.00;;;;;;;;4978215;28;45670;-70
2021/12/08 00:36:02;;;;;;;;;0.00;0.00;;;;;;;;4977681;28;45567;-70
2021/12/08 00:38:28;;;;;;;;;2.00;0.25;;;;;;;;4978606;28;46680;-70
2021/12/08 00:40:53;;;;;;;;;0.25;0.25;;;;;;;;4976824;28;45849;-70
2021/12/08 00:43:19;;;;;;;;;0.00;0.00;;;;;;;;4976844;28;45276;-70
2021/12/08 00:45:45;;;;;;;;;2.50;0.50;;;;;;;;4975149;28;45558;-70
2021/12/08 00:48:10;;;;;;;;;3.00;0.00;;;;;;;;4976960;28;45564;-70
2021/12/08 00:50:36;;;;;;;;;3.00;0.00;;;;;;;;4978375;28;45596;-70
2021/12/08 00:53:01;;;;;;;;;0.75;0.00;;;;;;;;4978466;28;45490;-70
2021/12/08 00:55:27;;;;;;;;;1.00;1.00;;;;;;;;4978076;28;45365;-70
2021/12/08 00:57:52;;;;;;;;;1.75;1.00;;;;;;;;4989486;28;46191;-70
2021/12/08 01:00:21;;;;;;;;;1.00;0.00;;;;;;;;4976478;28;45447;-70
2021/12/08 01:02:46;;;;;;;;;1.00;1.00;;;;;;;;4977801;28;45384;-70
2021/12/08 01:05:13;;;;;;;;;2.00;0.00;;;;;;;;4974969;28;45388;-70
2021/12/08 01:07:39;;;;;;;;;0.00;0.00;;;;;;;;4971372;28;45484;-71
2021/12/08 01:10:06;;;;;;;;;0.00;0.00;;;;;;;;4976958;28;45499;-70
2021/12/08 01:12:31;;;;;;;;;0.00;0.00;;;;;;;;4976424;28;45310;-70
2021/12/08 01:14:56;;;;;;;;;0.67;0.00;;;;;;;;4976969;28;45274;-71
2021/12/08 01:17:21;;;;;;;;;0.00;0.00;;;;;;;;4976142;28;45395;-70
2021/12/08 01:19:47;;;;;;;;;0.00;0.00;;;;;;;;4975620;28;45282;-70
2021/12/08 01:22:12;;;;;;;;;1.00;0.00;;;;;;;;4972269;28;45532;-70
2021/12/08 01:24:37;;;;;;;;;0.00;0.00;;;;;;;;4976302;28;45373;-70
2021/12/08 01:27:03;;;;;;;;;0.00;0.00;;;;;;;;4976422;28;45418;-71
2021/12/08 01:29:28;;;;;;;;;0.00;0.00;;;;;;;;4976478;28;45442;-70
2021/12/08 01:31:53;;;;;;;;;3.00;0.00;;;;;;;;4976730;28;45423;-71
2021/12/08 01:34:18;;;;;;;;;0.00;0.00;;;;;;;;4975709;28;45511;-70
2021/12/08 01:36:43;;;;;;;;;0.00;0.00;;;;;;;;4982891;28;46279;-70
2021/12/08 01:39:10;;;;;;;;;2.00;0.00;;;;;;;;4976243;28;45473;-70
2021/12/08 01:41:35;;;;;;;;;0.00;0.00;;;;;;;;4976408;28;45486;-70
2021/12/08 01:46:46;;;;;;;;;0.00;0.00;;;;;;;;4975418;28;45799;-70
2021/12/08 01:49:11;;;;;;;;;0.00;0.00;;;;;;;;4975873;28;45601;-71
2021/12/08 01:51:37;;;;;;;;;0.00;0.00;;;;;;;;4976152;28;45518;-71
2021/12/08 01:54:04;;;;;;;;;1.50;0.00;;;;;;;;4983674;28;45493;-70
2021/12/08 01:56:31;;;;;;;;;0.00;0.00;;;;;;;;4975757;28;46330;-70
2021/12/08 01:58:56;;;;;;;;;0.50;0.00;;;;;;;;4975924;28;45927;-70
2021/12/08 02:01:24;;;;;;;;;2.00;0.67;;;;;;;;4975611;28;45404;-70
2021/12/08 02:03:49;;;;;;;;;1.00;0.00;;;;;;;;4967761;28;45678;-71
2021/12/08 02:06:15;;;;;;;;;0.00;0.00;;;;;;;;4976053;28;46073;-70
2021/12/08 02:08:41;;;;;;;;;0.75;0.00;;;;;;;;4975390;28;45727;-69
2021/12/08 02:11:06;;;;;;;;;0.00;0.00;;;;;;;;4970621;28;45384;-70
2021/12/08 02:13:37;;;;;;;;;2.00;0.00;;;;;;;;4968463;28;45512;-70
2021/12/08 02:16:03;;;;;;;;;1.50;0.00;;;;;;;;4976081;28;47283;-69
2021/12/08 02:18:28;;;;;;;;;0.00;0.00;;;;;;;;4968668;28;45435;-70
2021/12/08 02:20:58;;;;;;;;;0.00;0.00;;;;;;;;4975964;28;45363;-70
2021/12/08 02:23:23;;;;;;;;;0.25;0.25;;;;;;;;4974880;28;45616;-69
2021/12/08 02:25:49;;;;;;;;;0.67;0.67;;;;;;;;4972394;28;45595;-70
2021/12/08 02:28:15;;;;;;;;;0.00;0.00;;;;;;;;4974759;28;45857;-70
2021/12/08 02:30:49;;;;;;;;;1.25;0.00;;;;;;;;4980718;28;45340;-69
2021/12/08 02:49:22;;;;;;;;;1.00;1.00;;;;;;;;4974730;28;45565;-69
2021/12/08 02:51:48;;;;;;;;;0.00;0.00;;;;;;;;4975021;28;45415;-70
2021/12/08 02:54:13;;;;;;;;;0.00;0.00;;;;;;;;4969301;28;45446;-70
2021/12/08 02:56:39;;;;;;;;;0.00;0.00;;;;;;;;4975397;28;46646;-69
2021/12/08 02:59:04;;;;;;;;;1.00;1.00;;;;;;;;4977374;28;45495;-70
2021/12/08 03:01:30;;;;;;;;;0.00;0.00;;;;;;;;4974184;28;47119;-69
2021/12/08 03:03:55;;;;;;;;;0.00;0.00;;;;;;;;4975049;28;45403;-69
2021/12/08 03:06:21;;;;;;;;;1.00;0.00;;;;;;;;4974971;28;45417;-70
2021/12/08 03:08:46;;;;;;;;;1.33;1.00;;;;;;;;4975317;28;45463;-69
2021/12/08 03:11:11;;;;;;;;;0.00;0.00;;;;;;;;4978270;28;45331;-70
2021/12/08 03:13:42;;;;;;;;;1.00;0.00;;;;;;;;4978426;28;45432;-69
2021/12/08 03:16:10;;;;;;;;;0.00;0.00;;;;;;;;4982515;28;46521;-70
2021/12/08 03:18:39;;;;;;;;;0.00;0.00;;;;;;;;4980423;28;45403;-70
2021/12/08 03:21:07;;;;;;;;;1.25;1.00;;;;;;;;4978676;28;45229;-69
2021/12/08 03:26:28;;;;;;;;;1.50;0.00;;;;;;;;4956147;28;45994;-70
2021/12/08 03:29:01;;;;;;;;;0.00;0.00;;;;;;;;4955988;28;45790;-69
2021/12/08 03:31:32;;;;;;;;;0.00;0.00;;;;;;;;4951264;28;45406;-70
2021/12/08 03:33:57;;;;;;;;;0.00;0.00;;;;;;;;4956604;28;45459;-70
2021/12/08 03:36:22;;;;;;;;;0.00;0.00;;;;;;;;4945268;28;45445;-70
2021/12/08 03:38:47;;;;;;;;;0.00;0.00;;;;;;;;4956713;28;45347;-69
2021/12/08 03:41:13;;;;;;;;;4.00;1.00;;;;;;;;4955946;28;45544;-70
2021/12/08 03:43:38;;;;;;;;;4.75;1.00;;;;;;;;4956263;28;45441;-70
2021/12/08 03:46:04;;;;;;;;;1.00;1.00;;;;;;;;4956492;28;45477;-69
2021/12/08 03:48:37;;;;;;;;;1.50;0.00;;;;;;;;4950583;28;45722;-70
2021/12/08 03:51:03;;;;;;;;;0.25;0.00;;;;;;;;4952573;28;45481;-70
2021/12/08 03:53:28;;;;;;;;;1.00;0.00;;;;;;;;4955698;28;45463;-69
2021/12/08 03:55:54;;;;;;;;;1.33;0.67;;;;;;;;4955741;28;46222;-70
2021/12/08 03:58:19;;;;;;;;;0.50;0.00;;;;;;;;4955935;28;45545;-70
2021/12/08 04:00:46;;;;;;;;;1.00;0.00;;;;;;;;4955206;28;45290;-69
2021/12/08 04:03:12;;;;;;;;;0.00;0.00;;;;;;;;4965354;28;45384;-69
2021/12/08 04:08:16;;;;;;;;;0.25;0.25;;;;;;;;4976321;28;45289;-70
2021/12/08 04:10:46;;;;;;;;;1.00;0.00;;;;;;;;4977260;28;45550;-69
2021/12/08 04:13:11;;;;;;;;;3.75;1.00;;;;;;;;4977545;28;45483;-70
2021/12/08 04:15:37;;;;;;;;;3.75;0.00;;;;;;;;4977084;28;46600;-69
2021/12/08 04:18:02;;;;;;;;;0.00;0.00;;;;;;;;4977484;28;45344;-69
2021/12/08 04:20:33;;;;;;;;;2.67;1.00;;;;;;;;4981282;28;45467;-70
2021/12/08 04:23:00;;;;;;;;;0.75;0.75;;;;;;;;4976599;28;45365;-70
2021/12/08 04:25:27;;;;;;;;;0.00;0.00;;;;;;;;4977112;28;46109;-70
2021/12/08 04:27:53;;;;;;;;;2.00;0.00;;;;;;;;4976570;28;45518;-70
2021/12/08 04:30:21;;;;;;;;;0.00;0.00;;;;;;;;5009044;28;45562;-70
2021/12/08 04:32:47;;;;;;;;;0.00;0.00;;;;;;;;4977612;28;45246;-69
2021/12/08 04:35:15;;;;;;;;;1.00;0.00;;;;;;;;4977435;28;45654;-69
2021/12/08 04:37:45;;;;;;;;;0.25;0.00;;;;;;;;4977060;28;45474;-70
2021/12/08 04:45:24;;;;;;;;;3.75;0.00;;;;;;;;4977171;28;45932;-70
2021/12/08 04:48:45;;;;;;;;;4.25;1.00;;;;;;;;4989198;28;45356;-69
2021/12/08 05:02:00;;;;;;;;;0.00;0.00;;;;;;;;4976648;28;45486;-70
2021/12/08 05:09:38;;;;;;;;;0.00;0.00;;;;;;;;4976223;28;45373;-70
2021/12/08 05:12:05;;;;;;;;;0.33;0.33;;;;;;;;4976420;28;45468;-70
2021/12/08 05:14:36;;;;;;;;;2.00;0.00;;;;;;;;4976546;28;45490;-69
2021/12/08 05:17:04;;;;;;;;;2.00;0.25;;;;;;;;4972528;28;45723;-70
2021/12/08 05:19:31;;;;;;;;;1.00;0.75;;;;;;;;4976088;28;45922;-69
2021/12/08 05:22:18;;;;;;;;;3.00;1.00;;;;;;;;4979402;28;45787;-70
2021/12/08 05:24:46;;;;;;;;;2.25;1.25;;;;;;;;4965890;28;45546;-69
2021/12/08 05:27:14;;;;;;;;;5.25;2.00;;;;;;;;4976245;28;46821;-70
2021/12/08 05:29:41;;;;;;;;;1.00;1.00;;;;;;;;4976516;28;45742;-70
2021/12/08 05:32:08;;;;;;;;;5.00;1.00;;;;;;;;4974880;28;45511;-69
2021/12/08 05:34:34;;;;;;;;;1.00;1.00;;;;;;;;4976217;28;45443;-70
2021/12/08 05:37:00;;;;;;;;;1.00;1.00;;;;;;;;4976015;28;45468;-70
2021/12/08 05:39:28;;;;;;;;;0.25;0.25;;;;;;;;4976293;28;45366;-69
2021/12/08 05:41:56;;;;;;;;;0.50;0.50;;;;;;;;4976561;28;45305;-70
2021/12/08 05:44:22;;;;;;;;;1.50;0.00;;;;;;;;4979565;28;45530;-70
2021/12/08 05:46:48;;;;;;;;;1.50;1.00;;;;;;;;4982198;28;45499;-70
2021/12/08 05:49:16;;;;;;;;;1.00;0.50;;;;;;;;4981599;28;45403;-70
2021/12/08 05:51:42;;;;;;;;;4.75;1.75;;;;;;;;4976122;28;45686;-70
2021/12/08 05:54:11;;;;;;;;;2.00;1.25;;;;;;;;4979063;28;45415;-70
2021/12/08 05:56:37;;;;;;;;;0.75;0.00;;;;;;;;4970612;28;46960;-70
2021/12/08 05:59:04;;;;;;;;;1.25;1.00;;;;;;;;4972804;28;45390;-70
2021/12/08 06:01:39;;;;;;;;;1.75;0.00;;;;;;;;4979898;28;45427;-70
2021/12/08 06:04:06;;;;;;;;;2.50;1.00;;;;;;;;4975302;28;45412;-69
2021/12/08 06:06:31;;;;;;;;;7.00;3.50;;;;;;;;4978621;28;46330;-70
2021/12/08 06:08:57;;;;;;;;;2.00;1.00;;;;;;;;4976150;28;45434;-69
2021/12/08 06:11:24;;;;;;;;;1.75;1.75;;;;;;;;4975212;28;45386;-69
2021/12/08 06:13:49;;;;;;;;;1.25;0.50;;;;;;;;4976053;28;45490;-70
2021/12/08 06:16:15;;;;;;;;;1.00;1.00;;;;;;;;4973747;28;46511;-70
2021/12/08 06:18:45;;;;;;;;;6.25;1.75;;;;;;;;4974766;28;45825;-69
2021/12/08 06:21:12;;;;;;;;;4.00;0.50;;;;;;;;4975237;28;45424;-69
2021/12/08 06:23:39;;;;;;;;;0.25;0.25;;;;;;;;4976310;28;45198;-69
2021/12/08 06:26:05;;;;;;;;;1.25;1.00;;;;;;;;4974826;28;45696;-69
2021/12/08 06:28:30;;;;;;;;;0.75;0.75;;;;;;;;4975234;28;45387;-69
2021/12/08 06:30:56;;;;;;;;;1.75;1.00;;;;;;;;4975536;28;45996;-69
2021/12/08 06:33:21;;;;;;;;;5.25;0.00;;;;;;;;4988732;28;45597;-69
2021/12/08 06:35:49;;;;;;;;;1.33;1.33;;;;;;;;4971134;28;46573;-69
2021/12/08 06:38:16;;;;;;;;;7.00;1.25;;;;;;;;4978147;28;45404;-69
2021/12/08 06:40:51;;;;;;;;;2.00;1.25;;;;;;;;4975260;28;45516;-69
2021/12/08 06:43:18;;;;;;;;;2.00;2.00;;;;;;;;4965875;28;45460;-70
2021/12/08 06:45:45;;;;;;;;;2.00;1.00;;;;;;;;4974643;28;45562;-70
2021/12/08 06:48:14;;;;;;;;;1.00;1.00;;;;;;;;4975359;28;45424;-70
2021/12/08 06:50:56;;;;;;;;;4.00;1.00;;;;;;;;4975051;28;45466;-69
2021/12/08 06:53:22;;;;;;;;;0.00;0.00;;;;;;;;4974834;28;45374;-70
2021/12/08 06:55:53;;;;;;;;;3.50;3.50;;;;;;;;4974758;28;46614;-70
2021/12/08 06:58:21;;;;;;;;;0.00;0.00;;;;;;;;4974697;28;45487;-70
2021/12/08 07:06:08;;;;;;;;;4.00;1.00;;;;;;;;4976043;28;45665;-70
2021/12/08 07:08:37;;;;;;;;;1.00;1.00;;;;;;;;4974583;28;45463;-70
2021/12/08 07:11:03;;;;;;;;;1.00;1.00;;;;;;;;4972444;28;45524;-69
2021/12/08 07:13:30;;;;;;;;;2.00;1.00;;;;;;;;4982312;28;45377;-70
2021/12/08 07:16:03;;;;;;;;;1.75;1.00;;;;;;;;4974608;28;46711;-70
2021/12/08 07:18:37;;;;;;;;;1.25;1.25;;;;;;;;4969522;28;45919;-70
2021/12/08 07:21:04;;;;;;;;;1.00;0.00;;;;;;;;4971721;28;45420;-70
2021/12/08 07:23:36;;;;;;;;;1.75;1.00;;;;;;;;4974204;28;45402;-70
2021/12/08 07:26:02;;;;;;;;;4.00;1.00;;;;;;;;4975714;28;46694;-69
2021/12/08 07:28:28;;;;;;;;;2.00;1.00;;;;;;;;4974414;28;45425;-70
2021/12/08 07:30:53;;;;;;;;;2.50;1.00;;;;;;;;4974813;28;45455;-70
2021/12/08 07:33:19;;;;;;;;;1.67;1.00;;;;;;;;4975289;28;45616;-70
2021/12/08 07:35:53;;;;;;;;;0.25;0.00;;;;;;;;4974901;28;45341;-70
2021/12/08 07:38:21;;;;;;;;;4.75;2.00;;;;;;;;4974123;28;45544;-70
2021/12/08 07:41:13;;;;;;;;;1.00;1.00;;;;;;;;4974392;28;45411;-70
2021/12/08 07:43:41;;;;;;;;;1.00;1.00;;;;;;;;4966443;28;45431;-70
2021/12/08 07:46:10;;;;;;;;;0.75;0.00;;;;;;;;4973504;28;45503;-71
2021/12/08 07:48:38;;;;;;;;;4.75;1.75;;;;;;;;4974584;28;45300;-71
2021/12/08 07:51:07;;;;;;;;;1.00;1.00;;;;;;;;4974402;28;45313;-71
2021/12/08 07:53:32;;;;;;;;;4.75;1.00;;;;;;;;4974761;28;45478;-70
2021/12/08 07:56:03;;;;;;;;;1.00;1.00;;;;;;;;4975389;28;46441;-70
2021/12/08 07:58:28;;;;;;;;;6.50;1.75;;;;;;;;4977489;28;45498;-70
2021/12/08 08:00:56;;;;;;;;;2.00;2.00;;;;;;;;4965302;28;45466;-70
2021/12/08 08:03:22;;;;;;;;;4.00;2.00;;;;;;;;4989513;28;45369;-70
2021/12/08 08:05:48;;;;;;;;;1.25;1.25;;;;;;;;4978123;28;46505;-70
2021/12/08 08:08:15;;;;;;;;;8.00;1.00;;;;;;;;4980310;28;45371;-70
2021/12/08 08:10:43;;;;;;;;;0.50;0.00;;;;;;;;4976479;28;45542;-70
2021/12/08 08:13:09;;;;;;;;;3.00;2.00;;;;;;;;4972696;28;45510;-70
2021/12/08 08:15:40;;;;;;;;;3.50;1.00;;;;;;;;4964246;28;46663;-70
2021/12/08 08:18:08;;;;;;;;;0.75;0.75;;;;;;;;4976652;28;45894;-70
2021/12/08 08:20:36;;;;;;;;;1.75;1.75;;;;;;;;4975883;28;45406;-70
2021/12/08 08:23:03;;;;;;;;;4.00;2.00;;;;;;;;4978528;28;45824;-70
2021/12/08 08:25:30;;;;;;;;;2.00;1.00;;;;;;;;4977396;28;45542;-70
2021/12/08 08:27:56;;;;;;;;;5.00;2.00;;;;;;;;4963650;28;45510;-70
2021/12/08 08:30:24;;;;;;;;;5.67;2.00;;;;;;;;4978486;28;45472;-70
2021/12/08 08:32:51;;;;;;;;;4.00;1.75;;;;;;;;4980498;28;45384;-71
2021/12/08 08:35:19;;;;;;;;;1.25;1.25;;;;;;;;4988650;28;47183;-72
2021/12/08 08:37:47;;;;;;;;;1.00;1.00;;;;;;;;4975504;28;45914;-71
2021/12/08 08:40:20;;;;;;;;;6.00;2.75;;;;;;;;4976034;28;45447;-69
2021/12/08 08:42:45;;;;;;;;;2.00;1.00;;;;;;;;4966630;28;45666;-69
2021/12/08 08:45:12;;;;;;;;;2.25;1.75;;;;;;;;4989410;28;45499;-70
2021/12/08 08:47:48;;;;;;;;;3.25;2.00;;;;;;;;4976886;28;45756;-69
2021/12/08 08:50:17;;;;;;;;;3.00;2.75;;;;;;;;4991711;28;45498;-70
2021/12/08 08:52:45;;;;;;;;;2.75;1.25;;;;;;;;4977100;28;45494;-69
2021/12/08 08:55:13;;;;;;;;;2.75;2.25;;;;;;;;4976921;28;46499;-70
2021/12/08 08:57:39;;;;;;;;;5.50;5.25;;;;;;;;4970779;28;45447;-71
2021/12/08 09:00:08;;;;;;;;;7.00;1.50;;;;;;;;4976996;28;45514;-70
2021/12/08 09:02:39;;;;;;;;;1.50;1.50;;;;;;;;4978322;28;45576;-70
2021/12/08 09:05:17;;;;;;;;;2.00;1.00;;;;;;;;4976190;28;45681;-70
2021/12/08 09:07:44;;;;;;;;;3.00;1.25;;;;;;;;4974968;28;45518;-70
2021/12/08 09:10:14;;;;;;;;;2.00;2.00;;;;;;;;4975946;28;45450;-70
2021/12/08 09:12:42;;;;;;;;;2.00;1.00;;;;;;;;4977601;28;45825;-71
2021/12/08 09:15:13;;;;;;;;;2.75;2.75;;;;;;;;4976232;28;45650;-70
2021/12/08 09:17:42;;;;;;;;;4.00;2.50;;;;;;;;4979567;28;45474;-70
2021/12/08 09:20:07;;;;;;;;;2.50;2.00;;;;;;;;4976026;28;45399;-71
2021/12/08 09:22:39;;;;;;;;;2.00;1.00;;;;;;;;4980515;28;45452;-71
2021/12/08 09:25:09;;;;;;;;;3.50;2.00;;;;;;;;4980683;28;47049;-71
2021/12/08 09:27:37;;;;;;;;;3.25;1.00;;;;;;;;4976027;28;45573;-71
2021/12/08 09:30:09;;;;;;;;;3.50;1.00;;;;;;;;4976874;28;45427;-70
2021/12/08 09:32:42;;;;;;;;;1.50;0.00;;;;;;;;4971484;28;45597;-70
2021/12/08 09:35:13;;;;;;;;;3.00;2.00;;;;;;;;4974180;28;45610;-70
2021/12/08 09:37:43;;;;;;;;;1.00;1.00;;;;;;;;4974363;28;45443;-70
2021/12/08 09:40:22;;;;;;;;;4.00;2.00;;;;;;;;4966468;28;45479;-70
2021/12/08 09:42:52;;;;;;;;;2.50;1.50;;;;;;;;4984310;28;45387;-70
2021/12/08 09:45:23;;;;;;;;;4.25;2.50;;;;;;;;4976349;28;46338;-71
2021/12/08 09:47:48;;;;;;;;;3.00;1.00;;;;;;;;4978661;28;45369;-70
2021/12/08 09:50:15;;;;;;;;;8.00;6.00;;;;;;;;4979674;28;45440;-70
2021/12/08 09:52:41;;;;;;;;;4.00;4.00;;;;;;;;4977359;28;45463;-71
2021/12/08 09:55:09;;;;;;;;;2.00;2.00;;;;;;;;4976601;28;46482;-70
2021/12/08 09:57:34;;;;;;;;;4.00;2.00;;;;;;;;4950165;28;45523;-71
2021/12/08 09:59:59;;;;;;;;;2.00;0.33;;;;;;;;4956781;28;45471;-70
2021/12/08 10:02:30;;;;;;;;;2.25;1.25;;;;;;;;4955435;28;45476;-70
2021/12/08 10:05:00;;;;;;;;;1.75;1.75;;;;;;;;4955654;28;46687;-71
2021/12/08 10:07:27;;;;;;;;;2.00;2.00;;;;;;;;4956585;28;45499;-71
2021/12/08 10:09:53;;;;;;;;;2.25;1.00;;;;;;;;4960259;28;45501;-70
2021/12/08 10:12:18;;;;;;;;;2.25;1.00;;;;;;;;4955341;28;45569;-70
2021/12/08 10:14:46;;;;;;;;;5.25;1.00;;;;;;;;4972317;28;46376;-70
2021/12/08 10:17:11;;;;;;;;;2.75;1.25;;;;;;;;4959709;28;45978;-70
2021/12/08 10:19:37;;;;;;;;;1.00;1.00;;;;;;;;4955359;28;45768;-70
2021/12/08 10:22:02;;;;;;;;;1.00;1.00;;;;;;;;4955129;28;45414;-70
2021/12/08 10:24:28;;;;;;;;;2.00;0.00;;;;;;;;4959476;28;46495;-71
2021/12/08 10:27:00;;;;;;;;;2.00;2.00;;;;;;;;4955970;28;45824;-70
2021/12/08 10:29:26;;;;;;;;;3.00;2.25;;;;;;;;4952293;28;45222;-71
2021/12/08 10:31:53;;;;;;;;;3.25;1.50;;;;;;;;4954458;28;45242;-71
2021/12/08 10:36:55;;;;;;;;;3.00;1.25;;;;;;;;4959295;28;45837;-70
2021/12/08 10:39:23;;;;;;;;;4.50;1.00;;;;;;;;4945761;28;45533;-70
2021/12/08 10:41:48;;;;;;;;;2.00;1.00;;;;;;;;4951960;28;45531;-71
2021/12/08 10:44:14;;;;;;;;;1.33;1.00;;;;;;;;4947544;28;46418;-70
2021/12/08 10:46:40;;;;;;;;;1.00;0.00;;;;;;;;4949165;28;45407;-70
2021/12/08 10:49:20;;;;;;;;;2.00;1.00;;;;;;;;4955916;28;45420;-71
2021/12/08 10:54:31;;;;;;;;;1.75;1.75;;;;;;;;4945175;28;45426;-71
2021/12/08 10:56:58;;;;;;;;;2.75;2.00;;;;;;;;4960201;28;45754;-70
2021/12/08 10:59:24;;;;;;;;;5.25;1.00;;;;;;;;4955600;28;45346;-70
2021/12/08 11:01:49;;;;;;;;;2.25;1.75;;;;;;;;4954331;28;45559;-70
2021/12/08 11:04:16;;;;;;;;;0.00;0.00;;;;;;;;4955224;28;45341;-70
2021/12/08 11:06:42;;;;;;;;;2.75;1.00;;;;;;;;4982928;28;45787;-70
2021/12/08 11:09:19;;;;;;;;;1.00;1.00;;;;;;;;4955639;28;45324;-70
2021/12/08 11:11:44;;;;;;;;;4.00;1.00;;;;;;;;4955551;28;45466;-70
2021/12/08 11:14:10;;;;;;;;;1.67;1.00;;;;;;;;4955139;28;46335;-70
2021/12/08 11:16:37;;;;;;;;;2.00;1.75;;;;;;;;4955157;28;45521;-70
2021/12/08 11:19:06;;;;;;;;;1.75;1.00;;;;;;;;4955356;28;45305;-70
2021/12/08 11:21:38;;;;;;;;;3.00;2.25;;;;;;;;4940216;28;45615;-70
2021/12/08 11:24:11;;;;;;;;;1.00;1.00;;;;;;;;4952720;28;47551;-70
2021/12/08 11:26:40;;;;;;;;;0.25;0.25;;;;;;;;4959267;28;45741;-71
2021/12/08 11:29:06;;;;;;;;;1.75;1.75;;;;;;;;4956382;28;45389;-70
2021/12/08 11:31:37;;;;;;;;;1.00;1.00;;;;;;;;4958919;28;45474;-70
2021/12/08 11:34:05;;;;;;;;;2.50;1.00;;;;;;;;4961187;28;45479;-70
2021/12/08 11:36:38;;;;;;;;;1.00;1.00;;;;;;;;4958669;28;45863;-70
2021/12/08 11:39:09;;;;;;;;;1.00;0.00;;;;;;;;4955026;28;45465;-71
2021/12/08 11:41:36;;;;;;;;;0.25;0.25;;;;;;;;4952642;28;45574;-70
2021/12/08 11:44:07;;;;;;;;;1.00;1.00;;;;;;;;4960039;28;45980;-73
2021/12/08 11:46:33;;;;;;;;;2.50;1.50;;;;;;;;4957136;28;45962;-70
2021/12/08 11:49:06;;;;;;;;;3.00;1.00;;;;;;;;4958369;28;45429;-70
2021/12/08 11:51:35;;;;;;;;;2.00;1.00;;;;;;;;4960055;28;45519;-72
2021/12/08 11:54:00;;;;;;;;;3.25;1.00;;;;;;;;4947142;28;46577;-70
2021/12/08 11:56:30;;;;;;;;;3.67;1.00;;;;;;;;4954730;28;45978;-71
2021/12/08 11:58:55;;;;;;;;;0.50;0.00;;;;;;;;4954660;28;45499;-71
2021/12/08 12:01:21;;;;;;;;;0.00;0.00;;;;;;;;4954094;28;45496;-70
2021/12/08 12:03:46;;;;;;;;;2.00;2.00;;;;;;;;4952718;28;46555;-71
2021/12/08 12:06:11;;;;;;;;;0.00;0.00;;;;;;;;4968469;28;45456;-71
2021/12/08 12:08:36;;;;;;;;;1.33;1.00;;;;;;;;4950651;28;45269;-71
2021/12/08 12:11:02;;;;;;;;;1.33;1.33;;;;;;;;4951252;28;45475;-71
2021/12/08 12:13:28;;;;;;;;;2.50;1.00;;;;;;;;4950236;28;45432;-71
2021/12/08 12:15:53;;;;;;;;;2.00;2.00;;;;;;;;4952233;28;45887;-72
2021/12/08 12:18:20;;;;;;;;;0.00;0.00;;;;;;;;4949491;28;45469;-72
2021/12/08 12:21:03;;;;;;;;;3.00;1.00;;;;;;;;4952730;28;45659;-72
2021/12/08 12:23:32;;;;;;;;;2.00;0.00;;;;;;;;4953119;28;45889;-72
2021/12/08 12:26:15;;;;;;;;;1.00;1.00;;;;;;;;4954660;28;45572;-72
2021/12/08 12:28:40;;;;;;;;;2.00;0.25;;;;;;;;4955261;28;45436;-72
2021/12/08 12:31:24;;;;;;;;;1.00;1.00;;;;;;;;4951592;28;45655;-72
2021/12/08 12:33:51;;;;;;;;;1.00;1.00;;;;;;;;4952137;28;46500;-72
2021/12/08 12:36:27;;;;;;;;;0.75;0.75;;;;;;;;4953999;28;46017;-72
2021/12/08 12:39:08;;;;;;;;;0.50;0.00;;;;;;;;4946313;28;45451;-72
2021/12/08 12:41:33;;;;;;;;;1.00;1.00;;;;;;;;4950263;28;45444;-72
2021/12/08 12:44:16;;;;;;;;;2.00;0.00;;;;;;;;4949597;28;46702;-72
2021/12/08 12:47:00;;;;;;;;;0.00;0.00;;;;;;;;4954290;28;45518;-71
2021/12/08 12:49:25;;;;;;;;;0.75;0.00;;;;;;;;4952944;28;45502;-72
2021/12/08 12:52:17;;;;;;;;;1.00;1.00;;;;;;;;4953563;28;45306;-72
2021/12/08 12:54:43;;;;;;;;;0.00;0.00;;;;;;;;4953547;28;46151;-71
2021/12/08 12:57:09;;;;;;;;;3.00;0.50;;;;;;;;4950901;28;46182;-72
2021/12/08 12:59:51;;;;;;;;;0.00;0.00;;;;;;;;4950896;28;45943;-72
2021/12/08 13:02:23;;;;;;;;;0.50;0.50;;;;;;;;4967416;28;45445;-72
2021/12/08 13:04:53;;;;;;;;;0.75;0.75;;;;;;;;4956498;28;46830;-72
2021/12/08 13:07:18;;;;;;;;;1.00;1.00;;;;;;;;4951174;28;45974;-72
2021/12/08 13:09:48;;;;;;;;;1.75;1.00;;;;;;;;4952678;28;45546;-72
2021/12/08 13:12:13;;;;;;;;;3.50;1.50;;;;;;;;4953027;28;45523;-72
2021/12/08 13:14:39;;;;;;;;;2.00;2.00;;;;;;;;4950503;28;45396;-72
2021/12/08 13:17:12;;;;;;;;;1.50;1.50;;;;;;;;4949772;28;45467;-72
2021/12/08 13:19:39;;;;;;;;;2.00;1.00;;;;;;;;4953600;28;45529;-72
2021/12/08 13:22:04;;;;;;;;;0.50;0.00;;;;;;;;4957026;28;45750;-72
2021/12/08 13:24:43;;;;;;;;;2.67;0.67;;;;;;;;4956381;28;46774;-72
2021/12/08 13:27:13;;;;;;;;;1.00;1.00;;;;;;;;4952220;28;45396;-72
2021/12/08 13:29:41;;;;;;;;;0.50;0.50;;;;;;;;4948984;28;45511;-72
2021/12/08 13:32:11;;;;;;;;;2.00;1.00;;;;;;;;4949735;28;45375;-72
2021/12/08 13:34:37;;;;;;;;;0.25;0.25;;;;;;;;4954481;28;45682;-72
2021/12/08 13:37:13;;;;;;;;;0.25;0.00;;;;;;;;4958312;28;45688;-72
2021/12/08 13:39:41;;;;;;;;;0.00;0.00;;;;;;;;4952285;28;45720;-72
2021/12/08 13:42:14;;;;;;;;;1.75;0.00;;;;;;;;4958443;28;45544;-72
2021/12/08 13:44:41;;;;;;;;;1.00;1.00;;;;;;;;4962695;28;46582;-71
2021/12/08 13:47:21;;;;;;;;;0.00;0.00;;;;;;;;4952171;28;45654;-71
2021/12/08 13:49:50;;;;;;;;;2.75;1.00;;;;;;;;4950265;28;45394;-71
2021/12/08 13:52:18;;;;;;;;;0.25;0.25;;;;;;;;4946352;28;45485;-70
2021/12/08 13:54:45;;;;;;;;;0.00;0.00;;;;;;;;4957873;28;46706;-70
2021/12/08 13:57:29;;;;;;;;;0.75;0.75;;;;;;;;4953310;28;45493;-70
2021/12/08 14:00:03;;;;;;;;;2.00;0.00;;;;;;;;4954150;28;45522;-71
2021/12/08 14:02:37;;;;;;;;;0.25;0.25;;;;;;;;4955192;28;45460;-71
2021/12/08 14:05:07;;;;;;;;;1.25;0.00;;;;;;;;4955155;28;47158;-71
2021/12/08 14:07:32;;;;;;;;;1.00;0.00;;;;;;;;4955440;28;46274;-71
2021/12/08 14:10:24;;;;;;;;;0.00;0.00;;;;;;;;4951189;28;48552;-71
2021/12/08 14:12:53;;;;;;;;;0.00;0.00;;;;;;;;4972223;28;45460;-71
2021/12/08 14:15:25;;;;;;;;;0.00;0.00;;;;;;;;4971606;28;46911;-71
2021/12/08 14:17:50;;;;;;;;;0.75;0.75;;;;;;;;4971374;28;45869;-71
2021/12/08 14:20:29;;;;;;;;;0.00;0.00;;;;;;;;4972479;28;45554;-71
2021/12/08 14:22:54;;;;;;;;;0.75;0.75;;;;;;;;4968102;28;45431;-71
2021/12/08 14:25:29;;;;;;;;;0.00;0.00;;;;;;;;4956390;28;47373;-71
2021/12/08 14:27:55;;;;;;;;;0.25;0.00;;;;;;;;4972073;28;45744;-71
2021/12/08 14:30:23;;;;;;;;;1.00;0.00;;;;;;;;4972717;28;45371;-71
2021/12/08 14:33:04;;;;;;;;;2.00;0.00;;;;;;;;4967944;28;45383;-70
2021/12/08 14:35:29;;;;;;;;;0.00;0.00;;;;;;;;4972781;28;45531;-71
2021/12/08 14:38:03;;;;;;;;;0.00;0.00;;;;;;;;4971200;28;45447;-70
2021/12/08 14:40:30;;;;;;;;;0.00;0.00;;;;;;;;4967147;28;45472;-71
2021/12/08 14:42:55;;;;;;;;;0.50;0.00;;;;;;;;4965690;28;45567;-70
2021/12/08 14:45:25;;;;;;;;;79.25;59.50;;;;;;;;4971818;28;46161;-69
2021/12/08 14:47:52;;;;;;;;;25.25;17.75;;;;;;;;4967416;28;46045;-68
2021/12/08 14:50:22;;;;;;;;;0.00;0.00;;;;;;;;4954295;28;45428;-70
2021/12/08 14:52:49;;;;;;;;;0.25;0.25;;;;;;;;4950668;28;45522;-70
2021/12/08 14:55:14;;;;;;;;;0.00;0.00;;;;;;;;4950575;28;45505;-70
2021/12/08 14:57:40;;;;;;;;;0.75;0.75;;;;;;;;4954149;28;45347;-70
2021/12/08 15:00:14;;;;;;;;;1.25;0.00;;;;;;;;4953597;28;45403;-70
2021/12/08 15:02:43;;;;;;;;;0.50;0.50;;;;;;;;4954879;28;45466;-71
2021/12/08 15:05:10;;;;;;;;;1.00;0.00;;;;;;;;4949254;28;46485;-71
2021/12/08 15:07:36;;;;;;;;;0.00;0.00;;;;;;;;4950375;28;45924;-71
2021/12/08 15:10:30;;;;;;;;;1.00;0.00;;;;;;;;4950751;28;45566;-70
2021/12/08 15:13:31;;;;;;;;;0.00;0.00;;;;;;;;4945836;28;45469;-70
2021/12/08 15:15:57;;;;;;;;;2.00;2.00;;;;;;;;4956086;28;45849;-70
2021/12/08 15:18:24;;;;;;;;;2.00;1.00;;;;;;;;4951685;28;45487;-70
2021/12/08 15:20:51;;;;;;;;;2.00;1.00;;;;;;;;4954234;28;45529;-70
2021/12/08 15:23:24;;;;;;;;;0.50;0.50;;;;;;;;4948704;28;45659;-69
2021/12/08 15:25:50;;;;;;;;;1.75;1.00;;;;;;;;4952349;28;45430;-70
2021/12/08 15:28:23;;;;;;;;;2.25;1.00;;;;;;;;4948462;28;45410;-70
2021/12/08 15:30:52;;;;;;;;;1.75;0.75;;;;;;;;4951140;28;45492;-70
2021/12/08 15:33:18;;;;;;;;;0.00;0.00;;;;;;;;4944685;28;45414;-69
2021/12/08 15:35:44;;;;;;;;;2.00;0.00;;;;;;;;4949715;28;46464;-69
2021/12/08 15:38:11;;;;;;;;;0.00;0.00;;;;;;;;4941219;28;45755;-69
2021/12/08 15:40:38;;;;;;;;;1.00;1.00;;;;;;;;4952343;28;45373;-69
2021/12/08 15:43:06;;;;;;;;;1.50;1.00;;;;;;;;4947943;28;45548;-69
2021/12/08 15:45:33;;;;;;;;;1.25;1.25;;;;;;;;4952688;28;45465;-70
2021/12/08 15:47:59;;;;;;;;;1.25;0.25;;;;;;;;4945179;28;45977;-68
2021/12/08 15:50:42;;;;;;;;;1.33;1.00;;;;;;;;4949403;28;45245;-68